Filippo Del Vecchio

Scout - Fiorentina
3 Dec 2028
Sunday
Process

Personality

Adaptability (18) Ambition (1) Controversy (12) Loyalty (14) Pressure (1) Professionalism (16) Sportsmanship (1) Temperament (15)

Profile

Coaching Style Democratic
License Continental Pro
Determination 14
Man Management 9
Motivating 14
Discipline 10
Job Satisfaction
100%
Fatigue
0%
Role Scout
Wage 71.0K p/w
Contract 14.03.2030

Performance

Behaviour Good
Training Effectiveness
54%
Player Development
55%
Injury Prevention
60%
Tactical Implementation
65%

Recent Events

Assessed a player now
Attended a recruitment meeting now
Recommended a transfer target now
Attended a recruitment meeting now
Attended a recruitment meeting 7d ago
Assessed a player 7d ago
Assessed a player 7d ago
Assessed a player 7d ago

Currently Monitoring

120
Player Club Status Ability Confidence Watched Last Observed Latest Vote
Chris Rigg West Ham United Active 142 / 139 40% 5 29.11.2028 -
Louis Page Leicester City Active 136 / 142 40% 9 29.11.2028 -
Matteo Palma Udinese Active 134 / 146 40% 6 29.11.2028 -
Davinchi Getafe Active 128 / 132 40% 4 29.11.2028 -
Ezra Mayers West Ham United Active 130 / 136 40% 6 27.11.2028 -
Ronan Kpakio AC Milan Active 128 / 135 40% 3 27.11.2028 -
Moses Sesay Southampton Active 118 / 119 40% 2 27.11.2028 -
Daniel Banjaqui Benfica Active 132 / 132 40% 6 26.11.2028 -
Noah Markmann Esbjerg Active 124 / 131 40% 4 26.11.2028 -
Josh King Newcastle United Active 148 / 150 40% 2 26.11.2028 -
Celías Ingenthron Platense Active 118 / 131 40% 5 24.11.2028 -
Germán Barbas Racing Santander Active 119 / 130 40% 3 24.11.2028 -
Diego León Rotherham United Active 127 / 135 40% 5 24.11.2028 -
Miguel Figueiredo Benfica Active 127 / 124 40% 9 21.11.2028 -
Axel Tape Bayer Leverkusen Active 138 / 142 40% 4 21.11.2028 -
Rafael Mota Sporting CP Active 120 / 129 40% 3 21.11.2028 -
Felipe Pujol Vélez Active 111 / 123 40% 2 21.11.2028 -
Christos Mouzakitis Hull City Active 143 / 153 40% 5 17.11.2028 -
Ale Gomes Zaragoza Active 120 / 137 40% 2 17.11.2028 -
Harrison Armstrong Ipswich Town Active 140 / 146 40% 2 17.11.2028 -
Luka Vušković Tottenham Active 151 / 160 40% 5 16.11.2028 -
Andrija Bulatović Chamois Niortais Active 134 / 143 40% 3 16.11.2028 -
José Neto Benfica Active 126 / 139 40% 3 16.11.2028 -
Trey Nyoni Rotherham United Active 145 / 151 40% 9 14.11.2028 -
Matías Magdaleno Estudiantes Active 110 / 121 40% 6 14.11.2028 -
Salvador Blopá Wolverhampton Active 128 / 123 40% 3 14.11.2028 -
Eman Košpo Zorya Active 110 / 117 40% 3 12.11.2028 -
Aidan Borland Espanyol Active 114 / 126 40% 1 12.11.2028 -
Vitaly Bondarev Ural Active 110 / 126 40% 1 12.11.2028 -
Olivier Mambwa Young Boys Active 115 / 131 40% 3 09.11.2028 -
Ayyoub Bouaddi Stoke City Active 153 / 156 40% 4 09.11.2028 -
Callum Olusesi Tottenham Active 122 / 134 40% 1 09.11.2028 -
Federico Matarán Giana Erminio Active 108 / 124 40% 1 06.11.2028 -
Tyler Fletcher Rotherham United Active 118 / 123 40% 7 05.11.2028 -
Malte Heyde Esbjerg Active 114 / 132 40% 1 05.11.2028 -
Cheveyo Tsawa Club Brugge Active 131 / 137 40% 7 04.11.2028 -
Sergio Martínez Real Madrid Active 120 / 121 40% 1 04.11.2028 -
Tobías Ramírez River Plate Active 131 / 126 40% 5 02.11.2028 -
Alexis Vossah Toulouse FC Active 130 / 140 40% 1 02.11.2028 -
Alain Taho Pergolettese Active 110 / 115 52% 1 / 1m 01.11.2028 -
Riccardo Stronati Pergolettese Active 107 / 107 30% 1 / 1m 01.11.2028 -
Davide Bragantini Mantova Active 137 / 137 42% 1 / 1m 01.11.2028 -
Tommaso Marras Mantova Active 126 / 129 30% 1 / 1m 01.11.2028 -
Darryl Bakola Sassuolo Active 118 / 131 40% 1 23.10.2028 -
Kiani Inge Groningen Active 117 / 130 40% 5 21.10.2028 -
Aarón Martín Al-Qadisiyah Active 120 / 111 40% 3 21.10.2028 -
Tobías Andrada River Plate Active 118 / 121 40% 3 19.10.2028 -
Augusto Bando Ascoli Active 115 / 127 40% 7 15.10.2028 -
Andrey Ivlev Nizhniy Novgorod Active 116 / 123 40% 5 15.10.2028 -
Veljko Milosavljević Bournemouth Active 150 / 145 40% 5 15.10.2028 -
Abubacarr Sedi Kinteh Al-Ahli Active 139 / 128 40% 2 07.10.2028 -
Kyllian Antonio RC Lens Active 121 / 119 40% 1 07.10.2028 -
Alejandro Almaraz NK Celje Active 117 / 127 40% 2 06.10.2028 -
Riquelme Thompson-Jones Accrington Stanley Active 113 / 129 40% 5 03.10.2028 -
Felipe Obradovich Ferro Carril Oeste Active 109 / 121 40% 2 02.10.2028 -
Mirza Ćatović VfB Stuttgart Active 128 / 125 40% 1 25.09.2028 -
Rhys Chadwick Blackpool Active 109 / 119 40% 1 25.09.2028 -
Grady Makiobo Juventus Active 115 / 129 40% 1 24.09.2028 -
Triston Rowe Derby County Active 119 / 133 40% 1 23.09.2028 -
Honest Ahanor Atalanta Active 141 / 146 40% 1 23.09.2028 -
Dmitry Pestryakov Real Sociedad Active 121 / 129 40% 1 22.09.2028 -
Lamine Ballo Inter Active 112 / 118 40% 1 22.09.2028 -
Wout Gielen Juventus Active 110 / 116 40% 1 20.09.2028 -
Agustín Medina Lanús Active 119 / 120 40% 1 18.09.2028 -
Matias Mancuso Inter Active 112 / 115 40% 1 18.09.2028 -
Jayden Ngwashi Manchester United Active 116 / 121 40% 1 17.09.2028 -
Jaydan Kamason Manchester United Active 116 / 116 40% 1 16.09.2028 -
Francesco Verde Juventus Active 112 / 126 40% 1 13.09.2028 -
Ayden Heaven Portsmouth Active 151 / 159 40% 7 12.09.2028 -
Bade Aluko Leicester City Active 126 / 128 40% 4 11.09.2028 -
Fabio Rispoli Como Active 120 / 126 40% 4 11.09.2028 -
Jan Bürger Northampton Town Active 123 / 125 40% 2 10.09.2028 -
Sam Alabi Newcastle United Active 111 / 123 40% 1 09.09.2028 -
Andrés Cuenca Como Active 118 / 126 40% 1 07.09.2028 -
Branimir Mlačić Udinese Active 126 / 121 40% 1 07.09.2028 -
Matai Akinmboni Bournemouth Active 114 / 113 40% 1 05.09.2028 -
Giovanni Leoni Lincoln City Active 145 / 151 40% 6 04.09.2028 -
Matthias Braunöder Carrarese Report Ready 132 / 128 95% 1 03.07.2028 -
Devyne Rensch Virtus Entella Report Ready 147 / 151 95% 1 07.06.2028 -
Edoardo Goldaniga Catania Report Ready 126 / 125 95% 1 02.06.2028 -
Franculino Brighton Active 147 / 147 40% 1 02.06.2028 -
Ibrahim Osman Norwich City Active 143 / 140 40% 1 02.06.2028 -
Jorthy Mokio ADO Den Haag Active 133 / 132 40% 6 29.05.2028 -
Jofre Torrents Ajax Active 132 / 141 40% 2 29.05.2028 -
Nejc Viher NK Maribor Active 118 / 132 40% 2 28.05.2028 -
David Blanc Le Havre AC Active 109 / 112 40% 1 28.05.2028 -
Andrea Cogoni Cosenza Active 109 / 111 40% 2 22.05.2028 -
Martim Cunha Porto Active 108 / 113 40% 4 22.05.2028 -
Josh Nichols Oldham Athletic Active 122 / 126 40% 3 21.05.2028 -
Bernardo Lima Porto Active 109 / 124 40% 6 17.05.2028 -
Sascha Britschgi AC Milan Active 122 / 128 40% 2 17.05.2028 -
Gustavo Albarracín Alavés Active 117 / 120 40% 1 19.04.2028 -
Halam Loboa Sevilla Active 125 / 120 40% 2 15.04.2028 -
Nicolas Sport Recife Active 108 / 106 40% 1 15.04.2028 -
Vittorio Magni Cesena Active 110 / 126 40% 1 11.04.2028 -
Thiago Silvero Vélez Active 129 / 130 40% 2 04.04.2028 -
Sergiu Perciun Torino Active 112 / 114 40% 1 03.04.2028 -
Jason Witsel PSV Active 125 / 136 40% 2 01.04.2028 -
Noahkai Banks FC Augsburg Active 140 / 138 40% 1 24.03.2028 -
Kacper Sezonienko Hellas Verona Active 115 / 118 42% 1 / 1m 19.01.2028 -
Luca D'Andrea Sassuolo Active 127 / 130 30% 1 / 1m 19.01.2028 -
Jaygo van Ommeren Utrecht Active 102 / 121 40% 2 21.05.2027 -
Bence Dárdai VfL Wolfsburg Active 131 / 127 40% 1 14.05.2027 -
Eliás Montiel Borussia Dortmund Active 130 / 132 40% 1 14.05.2027 -
Samuele di Benedetto Twente Active 112 / 119 40% 2 06.05.2027 -
Erick Dolly Black Aces Active 111 / 112 40% 1 01.04.2027 -
Filippo Distefano Empoli Active 118 / 120 40% 1 01.04.2027 -
Sindre Walle Egeli Udinese Active 131 / 125 40% 2 28.03.2027 -
David Romero Parma Active 126 / 132 40% 1 28.03.2027 -
Manfred Ugalde Spartak Moscow Active 128 / 138 40% 1 25.03.2027 -
Jeff Ekhator Juventus Active 128 / 140 40% 1 21.03.2027 Needs More Info
Maksim Samorodov Akhmat Grozny Active 124 / 121 40% 1 18.03.2027 -
Giorgi Kvernadze Frosinone Active 123 / 132 40% 1 18.03.2027 -
Ádin Molnár MTK Budapest Active 108 / 126 40% 1 08.03.2027 -
José Martínes CSKA 1948 Active 109 / 102 40% 1 07.03.2027 -
Massimo Zilli Spezia Active 108 / 105 40% 1 04.03.2027 -
Luca Pandolfi Avellino Active 115 / 115 30% 1 / 1m 20.01.2027 -
Bogdan Kostić Partizan Active 112 / 117 30% 1 / 1m 04.11.2026 -
Federico Tonin AlbinoLeffe Active 79 / 84 30% 1 / 1m 04.11.2026 -
Fali Candé Sassuolo Active 124 / 112 83% 1 17.08.2026 Approve